createdAt,value
2023-05-27T00:01:15.384Z,102665.75
2023-05-27T00:03:48.037Z,102661.00
2023-05-27T00:06:20.662Z,102663.50
2023-05-27T00:08:52.667Z,102662.47
2023-05-27T00:11:26.339Z,102662.06
2023-05-27T00:13:58.306Z,102662.91
2023-05-27T00:16:30.473Z,102658.50
2023-05-27T00:19:06.427Z,102629.34
2023-05-27T00:21:38.490Z,102658.28
2023-05-27T00:24:11.810Z,102644.63
2023-05-27T00:26:43.952Z,102661.56
2023-05-27T00:29:18.279Z,102647.03
2023-05-27T00:31:50.298Z,102646.81
2023-05-27T00:34:22.931Z,102654.75
2023-05-27T00:36:54.946Z,102645.78
2023-05-27T00:39:27.287Z,102643.06
2023-05-27T00:41:59.594Z,102644.75
2023-05-27T00:44:31.562Z,102647.06
2023-05-27T00:47:03.760Z,102620.56
2023-05-27T00:49:35.984Z,102644.06
2023-05-27T00:52:08.047Z,102640.28
2023-05-27T00:54:43.842Z,102648.91
2023-05-27T00:57:15.966Z,102649.66
2023-05-27T00:59:48.175Z,102644.22
2023-05-27T01:02:20.261Z,102645.00
2023-05-27T01:04:52.259Z,102640.28
2023-05-27T01:07:40.063Z,102630.31
2023-05-27T01:10:20.829Z,102645.28
2023-05-27T01:13:04.602Z,102639.56
2023-05-27T01:15:37.684Z,102642.91
2023-05-27T01:18:17.946Z,102633.78
2023-05-27T01:20:52.797Z,102641.81
2023-05-27T01:23:25.709Z,102637.09
2023-05-27T01:25:57.663Z,102622.41
2023-05-27T01:28:29.627Z,102639.75
2023-05-27T01:31:19.022Z,102620.56
2023-05-27T01:34:07.424Z,102633.25
2023-05-27T01:36:49.865Z,102632.34
2023-05-27T01:39:24.498Z,102636.56
2023-05-27T01:41:57.383Z,102628.25
2023-05-27T01:44:31.719Z,102628.09
2023-05-27T01:47:04.342Z,102628.94
2023-05-27T01:49:36.515Z,102617.88
2023-05-27T01:52:09.879Z,102614.31
2023-05-27T01:54:41.897Z,102624.00
2023-05-27T01:57:14.202Z,102620.19
2023-05-27T01:59:46.313Z,102621.88
2023-05-27T02:02:18.366Z,102625.31
2023-05-27T02:04:50.458Z,102616.31
2023-05-27T02:07:22.473Z,102619.56
2023-05-27T02:09:54.625Z,102614.09
2023-05-27T02:12:26.574Z,102609.50
2023-05-27T02:14:58.562Z,102619.22
2023-05-27T02:17:30.797Z,102613.78
2023-05-27T02:20:04.751Z,102620.56
2023-05-27T02:22:36.802Z,102622.03
2023-05-27T02:25:09.754Z,102617.59
2023-05-27T02:27:43.220Z,102623.69
2023-05-27T02:30:17.112Z,102621.97
2023-05-27T02:32:49.188Z,102625.34
2023-05-27T02:35:22.682Z,102618.97
2023-05-27T02:37:54.725Z,102627.91
2023-05-27T02:40:30.862Z,102622.38
2023-05-27T02:43:02.889Z,102623.03
2023-05-27T02:45:35.383Z,102611.22
2023-05-27T02:48:07.746Z,102619.25
2023-05-27T02:50:40.287Z,102614.34
2023-05-27T02:53:12.312Z,102620.81
2023-05-27T02:55:44.309Z,102623.28
2023-05-27T02:58:16.388Z,102621.19
2023-05-27T03:00:48.420Z,102627.16
2023-05-27T03:03:20.519Z,102632.94
2023-05-27T03:05:52.831Z,102638.97
2023-05-27T03:08:25.017Z,102640.09
2023-05-27T03:10:57.107Z,102636.41
2023-05-27T03:13:29.129Z,102634.81
2023-05-27T03:16:01.720Z,102624.78
2023-05-27T03:18:33.722Z,102630.03
2023-05-27T03:21:05.985Z,102633.53
2023-05-27T03:23:37.973Z,102636.06
2023-05-27T03:26:10.054Z,102643.91
2023-05-27T03:28:42.087Z,102640.91
2023-05-27T03:31:14.935Z,102635.09
2023-05-27T03:33:47.071Z,102617.66
2023-05-27T03:36:19.112Z,102618.81
2023-05-27T03:38:51.123Z,102622.44
2023-05-27T03:41:23.324Z,102622.44
2023-05-27T03:43:55.323Z,102618.66
2023-05-27T03:46:27.412Z,102610.13
2023-05-27T03:48:59.543Z,102612.69
2023-05-27T03:51:32.378Z,102614.16
2023-05-27T03:54:04.503Z,102607.91
2023-05-27T03:56:36.498Z,102610.34
2023-05-27T03:59:08.849Z,102611.25
2023-05-27T04:01:42.282Z,102615.44
2023-05-27T04:04:14.896Z,102597.47
2023-05-27T04:06:46.881Z,102612.91
2023-05-27T04:09:18.874Z,102593.91
2023-05-27T04:11:51.028Z,102604.41
2023-05-27T04:14:22.975Z,102606.22
2023-05-27T04:16:55.013Z,102608.75
2023-05-27T04:19:27.176Z,102609.84
2023-05-27T04:21:59.264Z,102598.94
2023-05-27T04:24:31.375Z,102603.75
2023-05-27T04:27:03.715Z,102608.84
2023-05-27T04:29:35.723Z,102604.56
2023-05-27T04:32:07.796Z,102600.03
2023-05-27T04:34:42.450Z,102606.22
2023-05-27T04:37:14.861Z,102600.19
2023-05-27T04:39:47.893Z,102590.56
2023-05-27T04:42:20.919Z,102594.75
2023-05-27T04:44:52.986Z,102572.25
2023-05-27T04:47:25.146Z,102593.91
2023-05-27T04:49:57.590Z,102592.19
2023-05-27T04:52:29.597Z,102595.41
2023-05-27T04:55:02.672Z,102589.16
2023-05-27T04:57:34.892Z,102580.31
2023-05-27T05:00:09.316Z,102579.47
2023-05-27T05:02:43.151Z,102579.31
2023-05-27T05:05:15.857Z,102574.03
2023-05-27T05:07:47.833Z,102570.59
2023-05-27T05:10:19.851Z,102580.50
2023-05-27T05:12:52.094Z,102579.84
2023-05-27T05:15:24.413Z,102578.84
2023-05-27T05:17:57.474Z,102582.31
2023-05-27T05:20:30.814Z,102589.56
2023-05-27T05:23:03.036Z,102587.28
2023-05-27T05:25:39.120Z,102583.34
2023-05-27T05:28:11.826Z,102579.41
2023-05-27T05:30:44.386Z,102577.03
2023-05-27T05:33:16.645Z,102576.63
2023-05-27T05:35:48.607Z,102570.59
2023-05-27T05:38:20.637Z,102570.53
2023-05-27T05:40:53.754Z,102572.63
2023-05-27T05:43:27.063Z,102564.16
2023-05-27T05:46:01.225Z,102571.91
2023-05-27T05:48:33.277Z,102570.22
2023-05-27T05:51:05.285Z,102567.25
2023-05-27T05:53:37.554Z,102563.69
2023-05-27T05:56:09.762Z,102558.13
2023-05-27T05:58:41.770Z,102548.13
2023-05-27T06:01:13.812Z,102555.78
2023-05-27T06:03:46.274Z,102557.94
2023-05-27T06:06:18.375Z,102554.13
2023-05-27T06:08:50.302Z,102553.53
2023-05-27T06:11:22.767Z,102542.97
2023-05-27T06:13:54.733Z,102546.56
2023-05-27T06:16:27.018Z,102547.19
2023-05-27T06:18:59.014Z,102537.75
2023-05-27T06:21:33.037Z,102516.31
2023-05-27T06:24:05.777Z,102532.22
2023-05-27T06:26:37.793Z,102532.22
2023-05-27T06:29:09.794Z,102530.09
2023-05-27T06:31:41.851Z,102528.19
2023-05-27T06:34:13.879Z,102537.19
2023-05-27T06:36:49.850Z,102528.09
2023-05-27T06:39:22.061Z,102528.38
2023-05-27T06:41:54.005Z,102531.34
2023-05-27T06:44:26.016Z,102530.75
2023-05-27T06:46:58.243Z,102518.78
2023-05-27T06:49:30.821Z,102516.91
2023-05-27T06:52:03.153Z,102520.06
2023-05-27T06:54:35.545Z,102521.31
2023-05-27T06:57:07.582Z,102514.03
2023-05-27T06:59:40.950Z,102514.56
2023-05-27T07:02:12.945Z,102509.59
2023-05-27T07:04:45.036Z,102521.81
2023-05-27T07:07:17.093Z,102495.03
2023-05-27T07:09:49.079Z,102506.38
2023-05-27T07:12:21.596Z,102511.25
2023-05-27T07:14:53.626Z,102509.84
2023-05-27T07:17:25.691Z,102511.75
2023-05-27T07:19:57.810Z,102502.41
2023-05-27T07:22:30.202Z,102503.03
2023-05-27T07:25:02.355Z,102509.50
2023-05-27T07:27:34.365Z,102510.75
2023-05-27T07:30:07.434Z,102502.28
2023-05-27T07:32:39.691Z,102511.78
2023-05-27T07:35:11.783Z,102507.97
2023-05-27T07:37:43.745Z,102505.81
2023-05-27T07:40:15.821Z,102496.22
2023-05-27T07:42:47.829Z,102494.41
2023-05-27T07:45:19.878Z,102493.94
2023-05-27T07:47:51.995Z,102485.53
2023-05-27T07:50:24.390Z,102480.56
2023-05-27T07:52:56.468Z,102478.66
2023-05-27T07:55:28.574Z,102446.44
2023-05-27T07:58:00.631Z,102469.53
2023-05-27T08:00:32.692Z,102471.56
2023-05-27T08:03:04.878Z,102463.06
2023-05-27T08:05:36.887Z,102460.25
2023-05-27T08:08:08.884Z,102460.75
2023-05-27T08:10:41.105Z,102459.94
2023-05-27T08:13:13.136Z,102463.78
2023-05-27T08:15:45.162Z,102455.31
2023-05-27T08:18:17.724Z,102443.06
2023-05-27T08:20:50.991Z,102437.66
2023-05-27T08:23:23.588Z,102435.09
2023-05-27T08:25:56.316Z,102440.00
2023-05-27T08:28:28.280Z,102433.22
2023-05-27T08:31:00.264Z,102427.94
2023-05-27T08:33:32.248Z,102420.03
2023-05-27T08:36:04.687Z,102408.84
2023-05-27T08:38:36.682Z,102408.97
2023-05-27T08:41:08.651Z,102402.09
2023-05-27T08:43:41.463Z,102406.09
2023-05-27T08:46:15.139Z,102405.28
2023-05-27T08:48:47.833Z,102402.63
2023-05-27T08:51:20.017Z,102402.78
2023-05-27T08:53:52.153Z,102378.69
2023-05-27T08:56:27.064Z,102390.75
2023-05-27T08:58:59.411Z,102393.75
2023-05-27T09:01:32.904Z,102396.66
2023-05-27T09:04:05.213Z,102389.50
2023-05-27T09:06:37.316Z,102380.09
2023-05-27T09:09:10.802Z,102376.97
2023-05-27T09:11:43.767Z,102351.19
2023-05-27T09:14:24.812Z,102370.56
2023-05-27T09:16:57.825Z,102375.22
2023-05-27T09:19:31.973Z,102364.66
2023-05-27T09:22:04.282Z,102359.47
2023-05-27T09:24:36.257Z,102350.69
2023-05-27T09:27:10.680Z,102350.88
2023-05-27T09:29:42.751Z,102347.53
2023-05-27T09:32:24.786Z,102345.97
2023-05-27T09:35:05.585Z,102339.00
2023-05-27T09:37:37.719Z,102344.59
2023-05-27T09:40:16.404Z,102339.28
2023-05-27T09:42:50.220Z,102347.44
2023-05-27T09:45:22.571Z,102336.91
2023-05-27T09:47:55.297Z,102336.06
2023-05-27T09:50:27.911Z,102325.38
2023-05-27T09:53:11.068Z,102325.66
2023-05-27T09:55:44.664Z,102324.91
2023-05-27T09:58:17.402Z,102318.75
2023-05-27T10:00:51.640Z,102315.25
2023-05-27T10:03:29.823Z,102317.09
2023-05-27T10:06:03.925Z,102312.72
2023-05-27T10:08:36.431Z,102309.25
2023-05-27T10:11:08.496Z,102303.16
2023-05-27T10:13:41.471Z,102305.03
2023-05-27T10:16:24.167Z,102299.59
2023-05-27T10:18:58.643Z,102293.25
2023-05-27T10:21:34.352Z,102293.25
2023-05-27T10:24:14.867Z,102291.47
2023-05-27T10:26:49.456Z,102291.34
2023-05-27T10:29:21.468Z,102290.25
2023-05-27T10:31:54.314Z,102287.34
2023-05-27T10:34:36.882Z,102286.16
2023-05-27T10:37:09.310Z,102286.72
2023-05-27T10:39:41.531Z,102282.09
2023-05-27T10:42:24.210Z,102272.22
2023-05-27T10:45:14.668Z,102282.81
2023-05-27T10:47:47.893Z,102281.91
2023-05-27T10:50:20.235Z,102271.97
2023-05-27T10:52:53.523Z,102268.31
2023-05-27T10:55:26.980Z,102261.13
2023-05-27T10:57:59.707Z,102258.44
2023-05-27T11:00:33.003Z,102250.59
2023-05-27T11:03:05.087Z,102252.75
2023-05-27T11:05:37.112Z,102248.53
2023-05-27T11:08:14.211Z,102241.47
2023-05-27T11:10:46.375Z,102236.47
2023-05-27T11:13:18.343Z,102229.59
2023-05-27T11:15:50.352Z,102224.50
2023-05-27T11:18:22.426Z,102222.78
2023-05-27T11:20:58.480Z,102217.41
2023-05-27T11:23:50.523Z,102214.72
2023-05-27T11:26:24.665Z,102217.56
2023-05-27T11:28:59.934Z,102219.44
2023-05-27T11:31:32.664Z,102210.66
2023-05-27T11:34:04.984Z,102215.13
2023-05-27T11:36:37.450Z,102205.28
2023-05-27T11:39:19.797Z,102198.09
2023-05-27T11:41:55.154Z,102182.00
2023-05-27T11:44:28.597Z,102191.03
2023-05-27T11:47:01.762Z,102189.28
2023-05-27T11:49:36.152Z,102178.50
2023-05-27T11:52:08.095Z,102183.91
2023-05-27T11:54:43.510Z,102167.75
2023-05-27T11:57:18.601Z,102159.72
2023-05-27T11:59:50.762Z,102167.81
2023-05-27T12:02:24.522Z,102156.16
2023-05-27T12:04:56.733Z,102154.38
2023-05-27T12:07:28.700Z,102146.31
2023-05-27T12:10:00.924Z,102147.25
2023-05-27T12:12:35.239Z,102151.78
2023-05-27T12:15:08.314Z,102094.38
2023-05-27T12:17:40.426Z,102138.34
2023-05-27T12:20:12.760Z,102136.53
2023-05-27T12:22:44.827Z,102135.66
2023-05-27T12:25:16.822Z,102132.94
2023-05-27T12:27:48.879Z,102105.16
2023-05-27T12:30:21.490Z,102123.09
2023-05-27T12:32:53.563Z,102110.53
2023-05-27T12:35:25.591Z,102116.84
2023-05-27T12:37:58.739Z,102111.44
2023-05-27T12:40:30.832Z,102106.97
2023-05-27T12:43:05.170Z,102097.09
2023-05-27T12:45:37.377Z,102101.59
2023-05-27T12:48:09.411Z,102092.59
2023-05-27T12:50:41.872Z,102087.22
2023-05-27T12:53:14.162Z,102090.81
2023-05-27T12:55:46.222Z,102088.09
2023-05-27T12:58:18.532Z,102084.50
2023-05-27T13:00:50.582Z,102076.44
2023-05-27T13:03:22.815Z,102075.53
2023-05-27T13:05:54.828Z,102073.75
2023-05-27T13:08:26.864Z,102074.63
2023-05-27T13:10:58.896Z,102066.56
2023-05-27T13:13:31.048Z,102065.66
2023-05-27T13:16:03.520Z,102070.16
2023-05-27T13:18:35.683Z,102069.25
2023-05-27T13:21:07.702Z,102067.47
2023-05-27T13:23:39.684Z,102067.44
2023-05-27T13:26:12.099Z,102062.09
2023-05-27T13:28:44.075Z,102062.94
2023-05-27T13:31:16.474Z,102059.31
2023-05-27T13:33:48.675Z,102057.50
2023-05-27T13:36:20.678Z,102052.16
2023-05-27T13:38:52.651Z,102056.63
2023-05-27T13:41:24.853Z,102045.81
2023-05-27T13:43:56.840Z,102045.81
2023-05-27T13:46:28.906Z,102037.75
2023-05-27T13:49:01.355Z,102038.69
2023-05-27T13:51:33.938Z,102025.28
2023-05-27T13:54:05.991Z,102026.19
2023-05-27T13:56:38.540Z,102017.22
2023-05-27T13:59:11.160Z,102015.44
2023-05-27T14:01:43.336Z,102015.41
2023-05-27T14:04:15.440Z,102011.78
2023-05-27T14:06:47.506Z,102006.31
2023-05-27T14:09:19.509Z,101993.66
2023-05-27T14:11:51.542Z,101999.94
2023-05-27T14:14:23.555Z,101989.22
2023-05-27T14:16:55.931Z,101987.41
2023-05-27T14:19:28.085Z,101982.88
2023-05-27T14:21:59.997Z,101982.84
2023-05-27T14:24:32.106Z,101988.22
2023-05-27T14:27:04.396Z,101982.81
2023-05-27T14:29:37.068Z,101989.16
2023-05-27T14:32:09.181Z,101980.19
2023-05-27T14:34:41.244Z,101980.19
2023-05-27T14:37:13.366Z,101981.09
2023-05-27T14:39:45.356Z,101973.00
2023-05-27T14:42:17.322Z,101969.38
2023-05-27T14:44:49.347Z,101968.47
2023-05-27T14:47:23.015Z,101975.66
2023-05-27T14:49:54.971Z,101973.84
2023-05-27T14:52:26.936Z,101967.59
2023-05-27T14:54:59.749Z,101972.06
2023-05-27T14:57:35.188Z,101958.63
2023-05-27T15:00:11.128Z,101955.88
2023-05-27T15:02:43.256Z,101963.88
2023-05-27T15:05:15.605Z,101960.16
2023-05-27T15:07:47.669Z,101951.94
2023-05-27T15:10:19.919Z,101950.13
2023-05-27T15:12:52.028Z,101952.88
2023-05-27T15:15:24.167Z,101944.69
2023-05-27T15:17:56.805Z,101933.03
2023-05-27T15:20:29.074Z,101943.72
2023-05-27T15:23:01.241Z,101942.84
2023-05-27T15:25:33.284Z,101937.44
2023-05-27T15:28:05.277Z,101941.97
2023-05-27T15:30:37.252Z,101926.66
2023-05-27T15:33:09.372Z,101928.34
2023-05-27T15:35:41.341Z,101920.31
2023-05-27T15:38:14.582Z,101920.31
2023-05-27T15:40:47.375Z,101921.25
2023-05-27T15:43:19.402Z,101921.25
2023-05-27T15:46:03.678Z,101922.19
2023-05-27T15:48:36.677Z,101912.28
2023-05-27T15:51:09.097Z,101905.09
2023-05-27T15:53:41.091Z,101907.75
2023-05-27T15:56:13.376Z,101905.03
2023-05-27T15:58:45.410Z,101914.88
2023-05-27T16:01:17.470Z,101911.31
2023-05-27T16:03:49.498Z,101913.16
2023-05-27T16:06:21.518Z,101909.63
2023-05-27T16:08:54.674Z,101901.44
2023-05-27T16:11:27.593Z,101893.22
2023-05-27T16:13:59.507Z,101888.72
2023-05-27T16:16:31.542Z,101892.38
2023-05-27T16:19:03.577Z,101888.72
2023-05-27T16:21:36.120Z,101890.47
2023-05-27T16:24:08.407Z,101874.47
2023-05-27T16:26:40.550Z,101884.31
2023-05-27T16:29:12.500Z,101882.50
2023-05-27T16:31:44.590Z,101889.66
2023-05-27T16:34:16.627Z,101853.84
2023-05-27T16:36:48.629Z,101864.47
2023-05-27T16:39:20.595Z,101862.66
2023-05-27T16:41:52.841Z,101865.41
2023-05-27T16:44:24.842Z,101863.59
2023-05-27T16:46:56.936Z,101839.53
2023-05-27T16:49:28.868Z,101864.56
2023-05-27T16:52:01.106Z,101867.25
2023-05-27T16:54:33.148Z,101870.88
2023-05-27T16:57:05.728Z,101863.81
2023-05-27T16:59:37.680Z,101860.31
2023-05-27T17:02:10.495Z,101865.78
2023-05-27T17:04:42.485Z,101855.00
2023-05-27T17:07:14.559Z,101865.75
2023-05-27T17:09:47.688Z,101859.47
2023-05-27T17:12:19.755Z,101853.22
2023-05-27T17:14:52.320Z,101844.22
2023-05-27T17:17:24.408Z,101845.19
2023-05-27T17:19:56.666Z,101843.47
2023-05-27T17:22:28.699Z,101850.63
2023-05-27T17:25:00.748Z,101846.13
2023-05-27T17:27:32.710Z,101847.94
2023-05-27T17:30:05.517Z,101846.16
2023-05-27T17:32:37.546Z,101847.09
2023-05-27T17:35:10.039Z,101845.38
2023-05-27T17:37:42.411Z,101853.50
2023-05-27T17:40:14.496Z,101852.59
2023-05-27T17:42:47.799Z,101854.38
2023-05-27T17:45:19.793Z,101854.44
2023-05-27T17:47:52.218Z,101855.44
2023-05-27T17:50:24.589Z,101841.16
2023-05-27T17:52:56.637Z,101845.78
2023-05-27T17:55:28.673Z,101842.25
2023-05-27T17:58:00.934Z,101839.63
2023-05-27T18:00:33.451Z,101844.13
2023-05-27T18:03:09.135Z,101835.16
2023-05-27T18:05:41.395Z,101854.03
2023-05-27T18:08:13.419Z,101853.16
2023-05-27T18:10:46.723Z,101852.31
2023-05-27T18:13:18.696Z,101839.81
2023-05-27T18:15:51.568Z,101839.84
2023-05-27T18:18:23.711Z,101843.41
2023-05-27T18:20:57.022Z,101837.16
2023-05-27T18:23:29.073Z,101841.66
2023-05-27T18:26:01.276Z,101846.16
2023-05-27T18:28:33.283Z,101841.72
2023-05-27T18:31:05.389Z,101843.53
2023-05-27T18:33:37.476Z,101851.63
2023-05-27T18:36:09.604Z,101847.16
2023-05-27T18:38:41.596Z,101855.22
2023-05-27T18:41:13.636Z,101848.03
2023-05-27T18:43:45.602Z,101842.72
2023-05-27T18:46:17.609Z,101857.97
2023-05-27T18:48:49.668Z,101843.66
2023-05-27T18:51:22.813Z,101849.06
2023-05-27T18:53:54.877Z,101841.03
2023-05-27T18:56:27.785Z,101858.03
2023-05-27T18:59:00.483Z,101865.19
2023-05-27T19:01:32.652Z,101851.72
2023-05-27T19:04:04.705Z,101860.69
2023-05-27T19:06:37.485Z,101862.47
2023-05-27T19:09:09.487Z,101858.88
2023-05-27T19:11:41.694Z,101851.72
2023-05-27T19:14:14.204Z,101860.66
2023-05-27T19:16:46.204Z,101857.97
2023-05-27T19:19:18.266Z,101862.44
2023-05-27T19:21:50.326Z,101864.19
2023-05-27T19:24:22.408Z,101863.25
2023-05-27T19:26:54.449Z,101867.72
2023-05-27T19:29:26.403Z,101862.31
2023-05-27T19:31:58.592Z,101871.22
2023-05-27T19:34:30.783Z,101877.47
2023-05-27T19:37:02.751Z,101840.75
2023-05-27T19:39:34.893Z,101876.50
2023-05-27T19:42:07.138Z,101875.59
2023-05-27T19:44:39.082Z,101882.69
2023-05-27T19:47:11.321Z,101875.50
2023-05-27T19:49:43.391Z,101870.06
2023-05-27T19:52:15.656Z,101882.53
2023-05-27T19:54:47.686Z,101885.13
2023-05-27T19:57:19.696Z,101887.75
2023-05-27T19:59:51.786Z,101878.78
2023-05-27T20:02:23.903Z,101880.50
2023-05-27T20:04:55.979Z,101875.13
2023-05-27T20:07:27.982Z,101858.00
2023-05-27T20:10:00.162Z,101875.00
2023-05-27T20:12:43.976Z,101890.13
2023-05-27T20:15:17.082Z,101889.13
2023-05-27T20:17:49.203Z,101884.66
2023-05-27T20:20:27.461Z,101889.03
2023-05-27T20:22:59.777Z,101883.59
2023-05-27T20:25:31.835Z,101887.13
2023-05-27T20:28:03.999Z,101888.84
2023-05-27T20:30:36.145Z,101889.66
2023-05-27T20:33:08.312Z,101897.66
2023-05-27T20:35:40.423Z,101892.25
2023-05-27T20:38:13.506Z,101891.34
2023-05-27T20:40:45.817Z,101882.34
2023-05-27T20:43:17.814Z,101882.28
2023-05-27T20:45:49.783Z,101881.34
2023-05-27T20:48:21.744Z,101879.47
2023-05-27T20:50:53.913Z,101885.69
2023-05-27T20:53:26.144Z,101888.22
2023-05-27T20:55:58.154Z,101884.63
2023-05-27T20:58:30.337Z,101859.41
2023-05-27T21:01:02.428Z,101886.28
2023-05-27T21:03:35.124Z,101882.63
2023-05-27T21:06:07.228Z,101878.06
2023-05-27T21:08:39.523Z,101875.41
2023-05-27T21:11:11.552Z,101874.38
2023-05-27T21:13:44.087Z,101873.44
2023-05-27T21:16:16.341Z,101880.50
2023-05-27T21:18:48.498Z,101867.06
2023-05-27T21:21:20.648Z,101865.22
2023-05-27T21:23:52.651Z,101876.78
2023-05-27T21:26:24.752Z,101866.94
2023-05-27T21:28:57.126Z,101871.41
2023-05-27T21:31:29.144Z,101871.28
2023-05-27T21:34:01.798Z,101873.91
2023-05-27T21:36:34.563Z,101878.22
2023-05-27T21:39:06.757Z,101845.97
2023-05-27T21:41:38.979Z,101872.78
2023-05-27T21:44:11.050Z,101876.53
2023-05-27T21:46:43.056Z,101872.72
2023-05-27T21:49:15.065Z,101873.50
2023-05-27T21:51:47.104Z,101870.69
2023-05-27T21:54:19.083Z,101863.50
2023-05-27T21:56:51.205Z,101867.00
2023-05-27T21:59:23.310Z,101866.94
2023-05-27T22:01:55.531Z,101863.38
2023-05-27T22:04:27.579Z,101869.47
2023-05-27T22:06:59.681Z,101873.03
2023-05-27T22:09:31.810Z,101870.28
2023-05-27T22:12:04.034Z,101871.09
2023-05-27T22:14:36.387Z,101867.53
2023-05-27T22:17:08.530Z,101865.72
2023-05-27T22:19:40.837Z,101862.91
2023-05-27T22:22:12.841Z,101861.09
2023-05-27T22:24:45.012Z,101861.00
2023-05-27T22:27:17.489Z,101850.22
2023-05-27T22:29:50.733Z,101854.56
2023-05-27T22:32:22.757Z,101848.28
2023-05-27T22:34:54.753Z,101853.53
2023-05-27T22:37:26.737Z,101849.06
2023-05-27T22:39:58.874Z,101850.75
2023-05-27T22:42:30.948Z,101848.03
2023-05-27T22:45:03.595Z,101855.97
2023-05-27T22:47:39.592Z,101858.63
2023-05-27T22:50:11.838Z,101853.19
2023-05-27T22:52:43.825Z,101849.47
2023-05-27T22:55:16.070Z,101845.03
2023-05-27T22:57:48.036Z,101835.09
2023-05-27T23:00:20.078Z,101851.97
2023-05-27T23:02:52.229Z,101837.53
2023-05-27T23:05:24.309Z,101858.16
2023-05-27T23:07:56.309Z,101856.28
2023-05-27T23:10:28.331Z,101845.66
2023-05-27T23:13:00.411Z,101844.66
2023-05-27T23:15:33.592Z,101845.47
2023-05-27T23:18:05.768Z,101826.63
2023-05-27T23:20:37.922Z,101832.84
2023-05-27T23:23:09.937Z,101822.94
2023-05-27T23:25:42.182Z,101822.06
2023-05-27T23:28:14.157Z,101822.03
2023-05-27T23:30:46.092Z,101804.91
2023-05-27T23:33:18.186Z,101814.56
2023-05-27T23:35:50.212Z,101802.00
2023-05-27T23:38:22.708Z,101817.19
2023-05-27T23:40:54.702Z,101815.41
2023-05-27T23:43:28.446Z,101808.22
2023-05-27T23:46:00.597Z,101812.59
2023-05-27T23:48:34.534Z,101804.56
2023-05-27T23:51:08.027Z,101805.28
2023-05-27T23:53:40.006Z,101807.91
2023-05-27T23:56:11.960Z,101801.59
2023-05-27T23:58:43.918Z,101796.19
